KAGS/AGS METAR and TAF weather

Enter ICAO airport designator
Station Type Date Time Source
KAGS METAR 2019/05/21 19:53 UTC NOAA

KAGS 211953Z 30006KT 10SM CLR 35/13 A2991 RMK AO2 SLP126 T03500133


Station Type Date Time Source
KAGS Decoded METAR 2019/05/21 19:53 UTC NOAA

AUGUSTA BUSH FIELD, GA, United States (KAGS) 33-22N 081-58W 44M
May 21, 2019 - 03:53 PM EDT / 2019.05.21 1953 UTC
Wind: from the WNW (300 degrees) at 7 MPH (6 KT):0
Visibility: 10 mile(s):0
Sky conditions: clear
Temperature: 95.0 F (35.0 C)
Dew Point: 55.9 F (13.3 C)
Relative Humidity: 27%
Pressure (altimeter): 29.91 in. Hg (1012 hPa)
ob: KAGS 211953Z 30006KT 10SM CLR 35/13 A2991 RMK AO2 SLP126 T03500133
cycle: 20

Station Type Date Time Source
KAGS TAF 2019/05/21 18:22 UTC NOAA

TAF KAGS 211720Z 2118/2218 VRB05KT P6SM FEW050
FM220000 VRB03KT P6SM SKC
TEMPO 2210/2212 3SM BR

Example: see airport list